sensor_id;sensor_type;location;lat;lon;timestamp;pressure;altitude;pressure_sealevel;temperature;humidity
77526;BME280;66627;29.424;-98.496;2024-03-02T00:01:19;99055.09;;;21.00;31.65
77526;BME280;66627;29.424;-98.496;2024-03-02T00:03:45;99055.30;;;20.53;32.40
77526;BME280;66627;29.424;-98.496;2024-03-02T00:06:11;99053.79;;;21.08;31.67
77526;BME280;66627;29.424;-98.496;2024-03-02T00:08:36;99051.76;;;21.20;31.75
77526;BME280;66627;29.424;-98.496;2024-03-02T00:11:01;99049.89;;;21.37;31.57
77526;BME280;66627;29.424;-98.496;2024-03-02T00:13:26;99053.80;;;21.21;32.16
77526;BME280;66627;29.424;-98.496;2024-03-02T00:15:54;99052.03;;;20.68;32.70
77526;BME280;66627;29.424;-98.496;2024-03-02T00:18:20;99049.37;;;20.58;32.57
77526;BME280;66627;29.424;-98.496;2024-03-02T00:20:43;99050.06;;;21.02;31.87
77526;BME280;66627;29.424;-98.496;2024-03-02T00:23:10;99052.89;;;20.75;32.37
77526;BME280;66627;29.424;-98.496;2024-03-02T00:25:39;99052.30;;;20.72;32.10
77526;BME280;66627;29.424;-98.496;2024-03-02T00:28:04;99054.16;;;20.97;32.02
77526;BME280;66627;29.424;-98.496;2024-03-02T00:30:38;99055.19;;;21.07;31.76
77526;BME280;66627;29.424;-98.496;2024-03-02T00:32:50;99056.39;;;20.29;32.82
77526;BME280;66627;29.424;-98.496;2024-03-02T00:35:17;99057.26;;;20.30;32.55
77526;BME280;66627;29.424;-98.496;2024-03-02T00:37:43;99055.38;;;20.92;32.34
77526;BME280;66627;29.424;-98.496;2024-03-02T00:40:09;99055.35;;;20.27;32.68
77526;BME280;66627;29.424;-98.496;2024-03-02T00:42:33;99053.90;;;20.25;32.53
77526;BME280;66627;29.424;-98.496;2024-03-02T00:44:59;99056.67;;;20.63;32.60
77526;BME280;66627;29.424;-98.496;2024-03-02T00:47:23;99058.12;;;20.95;32.14
77526;BME280;66627;29.424;-98.496;2024-03-02T00:49:48;99058.92;;;21.20;31.92
77526;BME280;66627;29.424;-98.496;2024-03-02T00:52:14;99059.36;;;21.01;32.09
77526;BME280;66627;29.424;-98.496;2024-03-02T00:54:40;99058.10;;;20.77;32.44
77526;BME280;66627;29.424;-98.496;2024-03-02T00:57:05;99062.83;;;21.22;32.15
77526;BME280;66627;29.424;-98.496;2024-03-02T00:59:31;99067.00;;;20.89;32.38
77526;BME280;66627;29.424;-98.496;2024-03-02T01:01:56;99073.02;;;20.07;33.33
77526;BME280;66627;29.424;-98.496;2024-03-02T01:04:22;99073.80;;;20.65;32.74
77526;BME280;66627;29.424;-98.496;2024-03-02T01:06:46;99074.59;;;20.02;33.38
77526;BME280;66627;29.424;-98.496;2024-03-02T01:09:13;99077.27;;;20.07;33.67
77526;BME280;66627;29.424;-98.496;2024-03-02T01:11:37;99079.77;;;19.38;33.72
77526;BME280;66627;29.424;-98.496;2024-03-02T01:14:03;99077.62;;;19.93;33.41
77526;BME280;66627;29.424;-98.496;2024-03-02T01:16:29;99075.61;;;20.36;33.03
77526;BME280;66627;29.424;-98.496;2024-03-02T01:18:55;99077.01;;;19.94;33.50
77526;BME280;66627;29.424;-98.496;2024-03-02T01:21:19;99083.21;;;19.86;33.67
77526;BME280;66627;29.424;-98.496;2024-03-02T01:23:45;99089.93;;;19.08;34.64
77526;BME280;66627;29.424;-98.496;2024-03-02T01:26:10;99085.43;;;19.94;34.01
77526;BME280;66627;29.424;-98.496;2024-03-02T01:28:37;99087.94;;;19.90;33.82
77526;BME280;66627;29.424;-98.496;2024-03-02T01:31:01;99090.89;;;18.29;35.90
77526;BME280;66627;29.424;-98.496;2024-03-02T01:33:27;99094.55;;;18.91;35.43
77526;BME280;66627;29.424;-98.496;2024-03-02T01:35:53;99097.60;;;19.15;35.26
77526;BME280;66627;29.424;-98.496;2024-03-02T01:38:18;99098.96;;;19.57;35.13
77526;BME280;66627;29.424;-98.496;2024-03-02T01:40:43;99099.67;;;19.64;35.05
77526;BME280;66627;29.424;-98.496;2024-03-02T01:43:10;99098.74;;;19.36;35.57
77526;BME280;66627;29.424;-98.496;2024-03-02T01:45:35;99099.57;;;19.22;35.29
77526;BME280;66627;29.424;-98.496;2024-03-02T01:48:00;99105.11;;;18.53;36.14
77526;BME280;66627;29.424;-98.496;2024-03-02T01:50:27;99106.47;;;19.22;35.18
77526;BME280;66627;29.424;-98.496;2024-03-02T01:52:51;99108.67;;;17.98;37.14
77526;BME280;66627;29.424;-98.496;2024-03-02T01:55:16;99103.59;;;18.89;36.31
77526;BME280;66627;29.424;-98.496;2024-03-02T01:57:41;99108.31;;;19.34;36.43
77526;BME280;66627;29.424;-98.496;2024-03-02T02:00:07;99109.39;;;18.79;36.70
77526;BME280;66627;29.424;-98.496;2024-03-02T02:02:32;99114.35;;;18.14;37.12
77526;BME280;66627;29.424;-98.496;2024-03-02T02:04:57;99119.02;;;17.01;38.29
77526;BME280;66627;29.424;-98.496;2024-03-02T02:07:23;99115.76;;;17.81;37.54
77526;BME280;66627;29.424;-98.496;2024-03-02T02:09:48;99124.15;;;18.59;36.95
77526;BME280;66627;29.424;-98.496;2024-03-02T02:12:14;99126.66;;;17.83;37.67
77526;BME280;66627;29.424;-98.496;2024-03-02T02:14:39;99131.71;;;18.10;37.63
77526;BME280;66627;29.424;-98.496;2024-03-02T02:17:04;99140.06;;;17.35;38.48
77526;BME280;66627;29.424;-98.496;2024-03-02T02:19:30;99143.72;;;16.50;39.39
77526;BME280;66627;29.424;-98.496;2024-03-02T02:21:56;99145.98;;;16.14;40.55
77526;BME280;66627;29.424;-98.496;2024-03-02T02:24:21;99155.62;;;17.21;38.93
77526;BME280;66627;29.424;-98.496;2024-03-02T02:26:46;99156.22;;;17.59;38.83
77526;BME280;66627;29.424;-98.496;2024-03-02T02:29:12;99157.74;;;17.68;39.01
77526;BME280;66627;29.424;-98.496;2024-03-02T02:31:40;99157.01;;;17.61;39.07
77526;BME280;66627;29.424;-98.496;2024-03-02T02:34:03;99156.05;;;17.86;38.53
77526;BME280;66627;29.424;-98.496;2024-03-02T02:36:28;99161.71;;;17.09;39.49
77526;BME280;66627;29.424;-98.496;2024-03-02T02:38:53;99167.52;;;17.66;38.78
77526;BME280;66627;29.424;-98.496;2024-03-02T02:41:18;99171.50;;;17.51;39.11
77526;BME280;66627;29.424;-98.496;2024-03-02T02:43:45;99172.34;;;17.61;38.64
77526;BME280;66627;29.424;-98.496;2024-03-02T02:46:10;99175.24;;;17.61;38.86
77526;BME280;66627;29.424;-98.496;2024-03-02T02:48:35;99172.76;;;18.37;38.41
77526;BME280;66627;29.424;-98.496;2024-03-02T02:51:01;99174.51;;;18.22;38.58
77526;BME280;66627;29.424;-98.496;2024-03-02T02:53:25;99177.76;;;17.25;39.43
77526;BME280;66627;29.424;-98.496;2024-03-02T02:55:52;99178.91;;;18.19;38.73
77526;BME280;66627;29.424;-98.496;2024-03-02T02:58:16;99178.79;;;17.65;39.08
77526;BME280;66627;29.424;-98.496;2024-03-02T03:00:42;99182.05;;;18.06;39.21
77526;BME280;66627;29.424;-98.496;2024-03-02T03:03:07;99183.73;;;17.66;39.66
77526;BME280;66627;29.424;-98.496;2024-03-02T03:05:33;99188.48;;;16.37;41.42
77526;BME280;66627;29.424;-98.496;2024-03-02T03:07:59;99188.87;;;16.31;41.36
77526;BME280;66627;29.424;-98.496;2024-03-02T03:10:23;99182.31;;;16.36;41.70
77526;BME280;66627;29.424;-98.496;2024-03-02T03:12:51;99183.06;;;15.85;42.59
77526;BME280;66627;29.424;-98.496;2024-03-02T03:15:16;99198.91;;;14.90;44.87
77526;BME280;66627;29.424;-98.496;2024-03-02T03:17:41;99197.84;;;16.13;42.78
77526;BME280;66627;29.424;-98.496;2024-03-02T03:20:07;99202.23;;;16.48;42.65
77526;BME280;66627;29.424;-98.496;2024-03-02T03:22:31;99212.38;;;15.63;44.27
77526;BME280;66627;29.424;-98.496;2024-03-02T03:25:00;99213.05;;;16.61;42.30
77526;BME280;66627;29.424;-98.496;2024-03-02T03:27:21;99211.75;;;16.88;42.49
77526;BME280;66627;29.424;-98.496;2024-03-02T03:29:46;99212.03;;;17.19;41.92
77526;BME280;66627;29.424;-98.496;2024-03-02T03:32:12;99220.04;;;16.86;42.55
77526;BME280;66627;29.424;-98.496;2024-03-02T03:34:37;99221.99;;;17.89;41.32
77526;BME280;66627;29.424;-98.496;2024-03-02T03:37:03;99225.19;;;17.23;41.70
77526;BME280;66627;29.424;-98.496;2024-03-02T03:41:55;99221.62;;;16.66;43.87
77526;BME280;66627;29.424;-98.496;2024-03-02T03:44:21;99221.83;;;16.25;44.20
77526;BME280;66627;29.424;-98.496;2024-03-02T03:46:45;99221.40;;;16.57;43.64
77526;BME280;66627;29.424;-98.496;2024-03-02T03:49:12;99226.39;;;16.22;46.17
77526;BME280;66627;29.424;-98.496;2024-03-02T03:51:36;99233.26;;;15.73;46.23
77526;BME280;66627;29.424;-98.496;2024-03-02T03:54:02;99236.61;;;15.86;47.24
77526;BME280;66627;29.424;-98.496;2024-03-02T03:56:28;99233.21;;;16.11;47.31
77526;BME280;66627;29.424;-98.496;2024-03-02T03:58:54;99230.00;;;15.57;47.72
77526;BME280;66627;29.424;-98.496;2024-03-02T04:01:20;99228.05;;;15.87;47.99
77526;BME280;66627;29.424;-98.496;2024-03-02T04:03:43;99234.53;;;15.28;49.16
77526;BME280;66627;29.424;-98.496;2024-03-02T04:06:09;99236.86;;;15.06;50.26
77526;BME280;66627;29.424;-98.496;2024-03-02T04:08:35;99233.86;;;15.47;50.24
77526;BME280;66627;29.424;-98.496;2024-03-02T04:10:59;99229.87;;;15.91;49.49
77526;BME280;66627;29.424;-98.496;2024-03-02T04:13:26;99229.33;;;16.11;49.07
77526;BME280;66627;29.424;-98.496;2024-03-02T04:15:51;99228.29;;;15.82;49.55
77526;BME280;66627;29.424;-98.496;2024-03-02T04:18:17;99232.93;;;15.50;50.50
77526;BME280;66627;29.424;-98.496;2024-03-02T04:20:43;99228.88;;;16.67;48.59
77526;BME280;66627;29.424;-98.496;2024-03-02T04:23:10;99232.25;;;15.63;51.59
77526;BME280;66627;29.424;-98.496;2024-03-02T04:25:34;99230.16;;;14.67;53.59
77526;BME280;66627;29.424;-98.496;2024-03-02T04:27:59;99230.19;;;14.25;55.43
77526;BME280;66627;29.424;-98.496;2024-03-02T04:30:26;99226.77;;;14.88;54.60
77526;BME280;66627;29.424;-98.496;2024-03-02T04:32:52;99223.47;;;14.64;55.02
77526;BME280;66627;29.424;-98.496;2024-03-02T04:35:17;99227.02;;;15.00;54.23
77526;BME280;66627;29.424;-98.496;2024-03-02T04:37:41;99229.62;;;15.21;54.03
77526;BME280;66627;29.424;-98.496;2024-03-02T04:40:09;99232.87;;;14.79;55.63
77526;BME280;66627;29.424;-98.496;2024-03-02T04:42:33;99233.45;;;14.40;56.28
77526;BME280;66627;29.424;-98.496;2024-03-02T04:44:58;99236.55;;;15.17;55.50
77526;BME280;66627;29.424;-98.496;2024-03-02T04:47:25;99234.44;;;14.92;56.28
77526;BME280;66627;29.424;-98.496;2024-03-02T04:49:50;99234.97;;;14.79;57.03
77526;BME280;66627;29.424;-98.496;2024-03-02T04:52:16;99235.35;;;15.23;56.00
77526;BME280;66627;29.424;-98.496;2024-03-02T04:54:40;99239.71;;;15.07;56.68
77526;BME280;66627;29.424;-98.496;2024-03-02T04:57:06;99237.93;;;15.15;56.23
77526;BME280;66627;29.424;-98.496;2024-03-02T04:59:31;99231.67;;;14.60;57.41
77526;BME280;66627;29.424;-98.496;2024-03-02T05:01:58;99227.90;;;15.08;56.30
77526;BME280;66627;29.424;-98.496;2024-03-02T05:04:22;99220.02;;;14.61;57.31
77526;BME280;66627;29.424;-98.496;2024-03-02T05:06:47;99219.90;;;13.96;58.94
77526;BME280;66627;29.424;-98.496;2024-03-02T05:09:13;99219.58;;;14.78;56.89
77526;BME280;66627;29.424;-98.496;2024-03-02T05:11:39;99226.36;;;14.56;57.46
77526;BME280;66627;29.424;-98.496;2024-03-02T05:14:05;99229.31;;;15.26;55.69
77526;BME280;66627;29.424;-98.496;2024-03-02T05:16:32;99230.81;;;15.51;55.40
77526;BME280;66627;29.424;-98.496;2024-03-02T05:18:56;99231.03;;;15.56;54.32
77526;BME280;66627;29.424;-98.496;2024-03-02T05:21:20;99233.22;;;15.39;54.20
77526;BME280;66627;29.424;-98.496;2024-03-02T05:23:47;99236.97;;;15.07;54.93
77526;BME280;66627;29.424;-98.496;2024-03-02T05:26:11;99231.88;;;16.08;53.19
77526;BME280;66627;29.424;-98.496;2024-03-02T05:28:38;99233.68;;;15.37;54.73
77526;BME280;66627;29.424;-98.496;2024-03-02T05:31:04;99232.92;;;16.12;53.04
77526;BME280;66627;29.424;-98.496;2024-03-02T05:33:28;99238.46;;;15.82;52.84
77526;BME280;66627;29.424;-98.496;2024-03-02T05:35:54;99247.40;;;15.57;53.19
77526;BME280;66627;29.424;-98.496;2024-03-02T05:38:19;99246.19;;;15.20;53.42
77526;BME280;66627;29.424;-98.496;2024-03-02T05:40:46;99242.73;;;15.90;53.78
77526;BME280;66627;29.424;-98.496;2024-03-02T05:43:12;99233.20;;;15.86;53.00
77526;BME280;66627;29.424;-98.496;2024-03-02T05:45:37;99233.16;;;15.88;53.32
77526;BME280;66627;29.424;-98.496;2024-03-02T05:48:02;99231.69;;;15.31;53.62
77526;BME280;66627;29.424;-98.496;2024-03-02T05:50:28;99235.77;;;14.06;55.91
77526;BME280;66627;29.424;-98.496;2024-03-02T05:52:58;99236.62;;;13.03;61.11
77526;BME280;66627;29.424;-98.496;2024-03-02T05:55:20;99237.09;;;12.85;62.06
77526;BME280;66627;29.424;-98.496;2024-03-02T05:57:44;99234.38;;;14.00;59.02
77526;BME280;66627;29.424;-98.496;2024-03-02T06:00:10;99233.08;;;13.70;58.91
77526;BME280;66627;29.424;-98.496;2024-03-02T06:05:01;99246.09;;;14.18;58.17
77526;BME280;66627;29.424;-98.496;2024-03-02T06:07:26;99245.62;;;14.60;57.88
77526;BME280;66627;29.424;-98.496;2024-03-02T06:09:51;99248.29;;;14.57;57.39
77526;BME280;66627;29.424;-98.496;2024-03-02T06:12:16;99251.90;;;14.21;57.50
77526;BME280;66627;29.424;-98.496;2024-03-02T06:14:44;99252.32;;;14.56;56.99
77526;BME280;66627;29.424;-98.496;2024-03-02T06:17:08;99249.30;;;14.80;56.00
77526;BME280;66627;29.424;-98.496;2024-03-02T06:19:33;99248.19;;;14.81;55.22
77526;BME280;66627;29.424;-98.496;2024-03-02T06:21:59;99249.08;;;13.30;59.86
77526;BME280;66627;29.424;-98.496;2024-03-02T06:24:24;99249.64;;;13.98;57.84
77526;BME280;66627;29.424;-98.496;2024-03-02T06:26:50;99248.81;;;13.52;59.94
77526;BME280;66627;29.424;-98.496;2024-03-02T06:29:17;99246.98;;;14.47;57.26
77526;BME280;66627;29.424;-98.496;2024-03-02T06:31:41;99241.38;;;12.71;60.15
77526;BME280;66627;29.424;-98.496;2024-03-02T06:34:07;99243.58;;;12.72;59.72
77526;BME280;66627;29.424;-98.496;2024-03-02T06:36:33;99249.08;;;13.57;57.57
77526;BME280;66627;29.424;-98.496;2024-03-02T06:38:58;99251.01;;;14.21;56.16
77526;BME280;66627;29.424;-98.496;2024-03-02T06:41:25;99250.68;;;13.89;56.11
77526;BME280;66627;29.424;-98.496;2024-03-02T06:43:49;99253.83;;;13.52;56.06
77526;BME280;66627;29.424;-98.496;2024-03-02T06:46:14;99254.03;;;13.87;56.29
77526;BME280;66627;29.424;-98.496;2024-03-02T06:48:40;99256.62;;;12.50;59.20
77526;BME280;66627;29.424;-98.496;2024-03-02T06:51:05;99256.00;;;11.90;62.17
77526;BME280;66627;29.424;-98.496;2024-03-02T06:53:30;99258.19;;;13.37;58.10
77526;BME280;66627;29.424;-98.496;2024-03-02T06:55:56;99260.95;;;13.25;58.74
77526;BME280;66627;29.424;-98.496;2024-03-02T06:58:22;99260.86;;;12.76;59.53
77526;BME280;66627;29.424;-98.496;2024-03-02T07:00:49;99257.42;;;13.44;58.23
77526;BME280;66627;29.424;-98.496;2024-03-02T07:03:14;99256.11;;;14.11;56.64
77526;BME280;66627;29.424;-98.496;2024-03-02T07:05:39;99249.73;;;14.26;55.55
77526;BME280;66627;29.424;-98.496;2024-03-02T07:08:04;99249.75;;;13.89;56.84
77526;BME280;66627;29.424;-98.496;2024-03-02T07:10:29;99247.88;;;13.00;57.90
77526;BME280;66627;29.424;-98.496;2024-03-02T07:12:55;99246.04;;;13.91;56.89
77526;BME280;66627;29.424;-98.496;2024-03-02T07:15:21;99245.98;;;12.45;60.86
77526;BME280;66627;29.424;-98.496;2024-03-02T07:17:46;99245.50;;;13.96;57.60
77526;BME280;66627;29.424;-98.496;2024-03-02T07:20:11;99247.89;;;13.88;56.65
77526;BME280;66627;29.424;-98.496;2024-03-02T07:22:36;99244.06;;;13.28;57.10
77526;BME280;66627;29.424;-98.496;2024-03-02T07:25:02;99242.61;;;13.07;57.86
77526;BME280;66627;29.424;-98.496;2024-03-02T07:27:27;99244.54;;;11.75;62.58
77526;BME280;66627;29.424;-98.496;2024-03-02T07:29:52;99249.82;;;10.86;66.39
77526;BME280;66627;29.424;-98.496;2024-03-02T07:32:18;99243.14;;;11.38;65.18
77526;BME280;66627;29.424;-98.496;2024-03-02T07:34:44;99238.49;;;12.05;62.31
77526;BME280;66627;29.424;-98.496;2024-03-02T07:37:10;99239.23;;;11.39;64.06
77526;BME280;66627;29.424;-98.496;2024-03-02T07:39:35;99240.12;;;10.83;65.00
77526;BME280;66627;29.424;-98.496;2024-03-02T07:42:00;99237.37;;;10.97;65.12
77526;BME280;66627;29.424;-98.496;2024-03-02T07:44:25;99230.76;;;11.52;63.34
77526;BME280;66627;29.424;-98.496;2024-03-02T07:46:51;99228.03;;;11.45;63.16
77526;BME280;66627;29.424;-98.496;2024-03-02T07:49:25;99221.77;;;11.41;62.11
77526;BME280;66627;29.424;-98.496;2024-03-02T07:51:43;99216.14;;;11.38;63.78
77526;BME280;66627;29.424;-98.496;2024-03-02T07:54:07;99213.97;;;12.69;59.06
77526;BME280;66627;29.424;-98.496;2024-03-02T07:56:34;99213.68;;;12.71;59.07
77526;BME280;66627;29.424;-98.496;2024-03-02T07:59:00;99218.33;;;10.52;66.22
77526;BME280;66627;29.424;-98.496;2024-03-02T08:01:24;99218.57;;;10.23;66.84
77526;BME280;66627;29.424;-98.496;2024-03-02T08:03:50;99220.73;;;10.24;66.38
77526;BME280;66627;29.424;-98.496;2024-03-02T08:06:16;99219.80;;;9.93;66.94
77526;BME280;66627;29.424;-98.496;2024-03-02T08:08:40;99211.72;;;9.96;66.63
77526;BME280;66627;29.424;-98.496;2024-03-02T08:11:06;99209.76;;;9.78;68.73
77526;BME280;66627;29.424;-98.496;2024-03-02T08:13:32;99201.06;;;11.22;64.39
77526;BME280;66627;29.424;-98.496;2024-03-02T08:15:57;99205.14;;;10.55;66.77
77526;BME280;66627;29.424;-98.496;2024-03-02T08:18:24;99202.10;;;10.76;66.36
77526;BME280;66627;29.424;-98.496;2024-03-02T08:20:49;99196.33;;;10.14;68.15
77526;BME280;66627;29.424;-98.496;2024-03-02T08:23:13;99191.06;;;10.01;69.46
77526;BME280;66627;29.424;-98.496;2024-03-02T08:25:39;99186.53;;;9.80;70.30
77526;BME280;66627;29.424;-98.496;2024-03-02T08:28:04;99184.25;;;10.41;70.12
77526;BME280;66627;29.424;-98.496;2024-03-02T08:30:30;99180.87;;;10.13;70.62
77526;BME280;66627;29.424;-98.496;2024-03-02T08:32:55;99169.60;;;11.05;67.79
77526;BME280;66627;29.424;-98.496;2024-03-02T08:35:21;99165.95;;;11.28;67.01
77526;BME280;66627;29.424;-98.496;2024-03-02T08:37:48;99164.36;;;11.07;68.02
77526;BME280;66627;29.424;-98.496;2024-03-02T08:40:13;99160.27;;;10.90;67.13
77526;BME280;66627;29.424;-98.496;2024-03-02T08:42:38;99160.40;;;11.34;66.36
77526;BME280;66627;29.424;-98.496;2024-03-02T08:45:03;99170.31;;;10.53;68.84
77526;BME280;66627;29.424;-98.496;2024-03-02T08:47:28;99168.30;;;10.39;68.49
77526;BME280;66627;29.424;-98.496;2024-03-02T08:49:53;99161.43;;;10.52;66.81
77526;BME280;66627;29.424;-98.496;2024-03-02T08:52:19;99163.44;;;10.43;68.31
77526;BME280;66627;29.424;-98.496;2024-03-02T08:54:44;99161.89;;;11.57;65.44
77526;BME280;66627;29.424;-98.496;2024-03-02T08:57:10;99161.26;;;10.66;67.84
77526;BME280;66627;29.424;-98.496;2024-03-02T08:59:35;99162.19;;;11.61;65.69
77526;BME280;66627;29.424;-98.496;2024-03-02T09:02:00;99159.64;;;11.36;65.40
77526;BME280;66627;29.424;-98.496;2024-03-02T09:04:26;99162.57;;;12.19;62.70
77526;BME280;66627;29.424;-98.496;2024-03-02T09:06:51;99165.39;;;10.94;65.65
77526;BME280;66627;29.424;-98.496;2024-03-02T09:09:18;99166.87;;;11.25;64.38
77526;BME280;66627;29.424;-98.496;2024-03-02T09:11:42;99166.93;;;10.53;67.00
77526;BME280;66627;29.424;-98.496;2024-03-02T09:14:08;99165.19;;;10.94;65.55
77526;BME280;66627;29.424;-98.496;2024-03-02T09:16:33;99168.72;;;11.57;63.09
77526;BME280;66627;29.424;-98.496;2024-03-02T09:18:59;99174.53;;;10.52;66.40
77526;BME280;66627;29.424;-98.496;2024-03-02T09:21:24;99173.49;;;9.87;68.60
77526;BME280;66627;29.424;-98.496;2024-03-02T09:23:49;99168.84;;;9.70;68.79
77526;BME280;66627;29.424;-98.496;2024-03-02T09:26:15;99163.30;;;9.37;69.90
77526;BME280;66627;29.424;-98.496;2024-03-02T09:28:44;99164.00;;;9.38;69.56
77526;BME280;66627;29.424;-98.496;2024-03-02T09:31:07;99160.60;;;9.08;70.38
77526;BME280;66627;29.424;-98.496;2024-03-02T09:33:31;99161.17;;;9.32;71.32
77526;BME280;66627;29.424;-98.496;2024-03-02T09:35:57;99158.98;;;9.45;72.35
77526;BME280;66627;29.424;-98.496;2024-03-02T09:40:49;99158.21;;;9.30;72.46
77526;BME280;66627;29.424;-98.496;2024-03-02T09:43:14;99156.97;;;9.67;69.99
77526;BME280;66627;29.424;-98.496;2024-03-02T09:45:39;99159.63;;;9.61;69.21
77526;BME280;66627;29.424;-98.496;2024-03-02T09:48:07;99155.81;;;10.21;68.05
77526;BME280;66627;29.424;-98.496;2024-03-02T09:50:30;99158.02;;;9.65;69.98
77526;BME280;66627;29.424;-98.496;2024-03-02T09:52:55;99156.50;;;9.49;70.32
77526;BME280;66627;29.424;-98.496;2024-03-02T09:55:26;99152.97;;;9.32;71.02
77526;BME280;66627;29.424;-98.496;2024-03-02T09:57:47;99152.70;;;9.40;70.36
77526;BME280;66627;29.424;-98.496;2024-03-02T10:00:12;99145.08;;;9.82;67.28
77526;BME280;66627;29.424;-98.496;2024-03-02T10:02:36;99142.21;;;9.62;69.21
77526;BME280;66627;29.424;-98.496;2024-03-02T10:05:01;99141.88;;;10.85;65.67
77526;BME280;66627;29.424;-98.496;2024-03-02T10:07:28;99138.30;;;10.62;64.76
77526;BME280;66627;29.424;-98.496;2024-03-02T10:09:53;99135.08;;;10.16;67.21
77526;BME280;66627;29.424;-98.496;2024-03-02T10:12:19;99132.32;;;9.98;66.29
77526;BME280;66627;29.424;-98.496;2024-03-02T10:14:44;99123.94;;;11.06;63.94
77526;BME280;66627;29.424;-98.496;2024-03-02T10:17:11;99124.68;;;9.75;68.47
77526;BME280;66627;29.424;-98.496;2024-03-02T10:19:36;99124.08;;;10.06;68.21
77526;BME280;66627;29.424;-98.496;2024-03-02T10:22:01;99122.63;;;9.43;69.74
77526;BME280;66627;29.424;-98.496;2024-03-02T10:24:26;99121.52;;;9.13;70.57
77526;BME280;66627;29.424;-98.496;2024-03-02T10:26:53;99120.16;;;9.22;71.16
77526;BME280;66627;29.424;-98.496;2024-03-02T10:29:18;99118.71;;;9.58;69.92
77526;BME280;66627;29.424;-98.496;2024-03-02T10:31:43;99113.02;;;10.42;68.58
77526;BME280;66627;29.424;-98.496;2024-03-02T10:34:08;99111.52;;;9.94;69.29
77526;BME280;66627;29.424;-98.496;2024-03-02T10:36:34;99106.11;;;10.10;68.45
77526;BME280;66627;29.424;-98.496;2024-03-02T10:38:58;99099.72;;;10.98;66.24
77526;BME280;66627;29.424;-98.496;2024-03-02T10:41:26;99100.73;;;11.43;65.28
77526;BME280;66627;29.424;-98.496;2024-03-02T10:43:50;99101.52;;;11.01;66.89
77526;BME280;66627;29.424;-98.496;2024-03-02T10:46:17;99102.32;;;10.38;68.17
77526;BME280;66627;29.424;-98.496;2024-03-02T10:48:43;99103.79;;;10.10;69.69
77526;BME280;66627;29.424;-98.496;2024-03-02T10:51:10;99103.16;;;10.14;69.88
77526;BME280;66627;29.424;-98.496;2024-03-02T10:53:31;99100.86;;;11.38;67.47
77526;BME280;66627;29.424;-98.496;2024-03-02T10:55:58;99100.86;;;11.49;66.02
77526;BME280;66627;29.424;-98.496;2024-03-02T10:58:21;99098.43;;;11.26;64.70
77526;BME280;66627;29.424;-98.496;2024-03-02T11:00:47;99100.93;;;10.94;65.22
77526;BME280;66627;29.424;-98.496;2024-03-02T11:03:13;99105.74;;;10.09;67.63
77526;BME280;66627;29.424;-98.496;2024-03-02T11:05:40;99108.73;;;9.98;67.89
77526;BME280;66627;29.424;-98.496;2024-03-02T11:08:07;99117.14;;;9.70;67.85
77526;BME280;66627;29.424;-98.496;2024-03-02T11:10:36;99121.88;;;10.72;65.91
77526;BME280;66627;29.424;-98.496;2024-03-02T11:12:59;99130.02;;;10.82;65.53
77526;BME280;66627;29.424;-98.496;2024-03-02T11:15:20;99138.09;;;10.67;66.52
77526;BME280;66627;29.424;-98.496;2024-03-02T11:17:45;99139.03;;;10.32;67.98
77526;BME280;66627;29.424;-98.496;2024-03-02T11:20:11;99140.41;;;9.96;68.63
77526;BME280;66627;29.424;-98.496;2024-03-02T11:22:36;99140.43;;;10.21;69.80
77526;BME280;66627;29.424;-98.496;2024-03-02T11:25:02;99146.42;;;9.84;68.94
77526;BME280;66627;29.424;-98.496;2024-03-02T11:29:52;99148.92;;;11.85;64.64
77526;BME280;66627;29.424;-98.496;2024-03-02T11:32:21;99144.93;;;11.57;63.74
77526;BME280;66627;29.424;-98.496;2024-03-02T11:34:45;99147.04;;;11.62;63.04
77526;BME280;66627;29.424;-98.496;2024-03-02T11:37:09;99147.12;;;12.11;61.79
77526;BME280;66627;29.424;-98.496;2024-03-02T11:39:35;99146.94;;;11.42;62.66
77526;BME280;66627;29.424;-98.496;2024-03-02T11:41:59;99152.14;;;11.14;62.25
77526;BME280;66627;29.424;-98.496;2024-03-02T11:44:27;99154.05;;;10.70;63.68
77526;BME280;66627;29.424;-98.496;2024-03-02T11:46:54;99148.14;;;11.21;61.75
77526;BME280;66627;29.424;-98.496;2024-03-02T11:49:16;99138.88;;;10.86;63.10
77526;BME280;66627;29.424;-98.496;2024-03-02T11:51:50;99127.98;;;11.55;60.78
77526;BME280;66627;29.424;-98.496;2024-03-02T11:54:07;99124.64;;;11.73;60.12
77526;BME280;66627;29.424;-98.496;2024-03-02T11:56:32;99119.21;;;11.87;59.44
77526;BME280;66627;29.424;-98.496;2024-03-02T11:58:59;99118.90;;;11.63;59.74
77526;BME280;66627;29.424;-98.496;2024-03-02T12:01:24;99122.21;;;12.04;59.79
77526;BME280;66627;29.424;-98.496;2024-03-02T12:03:49;99128.00;;;11.22;60.48
77526;BME280;66627;29.424;-98.496;2024-03-02T12:06:13;99126.30;;;11.25;61.93
77526;BME280;66627;29.424;-98.496;2024-03-02T12:11:04;99126.72;;;10.74;61.33
77526;BME280;66627;29.424;-98.496;2024-03-02T12:13:35;99129.08;;;11.24;61.36
77526;BME280;66627;29.424;-98.496;2024-03-02T12:15:55;99139.13;;;10.51;62.04
77526;BME280;66627;29.424;-98.496;2024-03-02T12:18:20;99139.33;;;11.35;61.08
77526;BME280;66627;29.424;-98.496;2024-03-02T12:20:46;99137.98;;;11.23;61.50
77526;BME280;66627;29.424;-98.496;2024-03-02T12:23:10;99127.41;;;11.98;59.85
77526;BME280;66627;29.424;-98.496;2024-03-02T12:25:36;99132.73;;;11.72;60.37
77526;BME280;66627;29.424;-98.496;2024-03-02T12:28:04;99138.91;;;11.41;60.53
77526;BME280;66627;29.424;-98.496;2024-03-02T12:30:30;99150.71;;;10.17;62.13
77526;BME280;66627;29.424;-98.496;2024-03-02T12:32:56;99158.07;;;10.56;61.40
77526;BME280;66627;29.424;-98.496;2024-03-02T12:35:18;99159.74;;;10.44;61.57
77526;BME280;66627;29.424;-98.496;2024-03-02T12:37:44;99153.85;;;10.70;60.89
77526;BME280;66627;29.424;-98.496;2024-03-02T12:40:11;99157.96;;;10.00;62.52
77526;BME280;66627;29.424;-98.496;2024-03-02T12:42:33;99154.75;;;10.36;61.66